Time;durP1;ratioP1;P1;durP2;ratioP2;P2;SDS_P1;SDS_P2;PMS_P1;PMS_P2;Temp;Humidity;BMP_temperature;BMP_pressure;BME280_temperature;BME280_humidity;BME280_pressure;Samples;Min_cycle;Max_cycle;Signal;HPM_P1;HPM_P2
2021/08/09 00:01:24;;;;;;;4.60;2.00;;;14.40;99.90;;;;;;5051549;28;20021;-65
2021/08/09 00:03:50;;;;;;;3.80;2.00;;;14.30;99.90;;;;;;5052532;28;20037;-64
2021/08/09 00:06:15;;;;;;;4.55;2.28;;;14.20;99.90;;;;;;5051302;28;20484;-64
2021/08/09 00:08:41;;;;;;;3.83;1.80;;;14.10;99.90;;;;;;5050285;28;20409;-64
2021/08/09 00:11:07;;;;;;;4.03;2.30;;;14.00;99.90;;;;;;5031914;28;20038;-64
2021/08/09 00:13:32;;;;;;;4.35;2.20;;;14.00;99.90;;;;;;5030567;28;20025;-64
2021/08/09 00:15:58;;;;;;;4.47;2.30;;;13.90;99.90;;;;;;5034148;28;20164;-64
2021/08/09 00:18:25;;;;;;;4.20;2.10;;;13.90;99.90;;;;;;5050630;28;20029;-64
2021/08/09 00:20:52;;;;;;;3.15;2.35;;;13.90;99.90;;;;;;5051686;28;20025;-64
2021/08/09 00:23:19;;;;;;;4.82;2.33;;;13.80;99.90;;;;;;5051349;28;20040;-65
2021/08/09 00:25:44;;;;;;;3.47;2.13;;;13.80;99.90;;;;;;5051648;28;20064;-64
2021/08/09 00:28:10;;;;;;;4.22;2.17;;;13.80;99.90;;;;;;5051237;28;20021;-64
2021/08/09 00:30:36;;;;;;;4.30;1.95;;;13.80;99.90;;;;;;5050610;28;20033;-64
2021/08/09 00:33:02;;;;;;;3.45;2.10;;;13.70;99.90;;;;;;5051754;28;20025;-64
2021/08/09 00:35:28;;;;;;;5.13;2.20;;;13.70;99.90;;;;;;5050699;28;20033;-64
2021/08/09 00:37:53;;;;;;;7.75;2.40;;;13.70;99.90;;;;;;5051533;28;20029;-64
2021/08/09 00:40:19;;;;;;;5.65;2.20;;;13.70;99.90;;;;;;5051169;28;20064;-65
2021/08/09 00:42:45;;;;;;;1.90;1.70;;;13.60;99.90;;;;;;5055680;28;20036;-64
2021/08/09 00:45:11;;;;;;;4.07;2.00;;;13.60;99.90;;;;;;5055872;28;20040;-64
2021/08/09 00:47:37;;;;;;;4.20;2.33;;;13.50;99.90;;;;;;5054472;28;20025;-64
2021/08/09 00:50:03;;;;;;;4.35;2.47;;;13.50;99.90;;;;;;5055161;28;20029;-64
2021/08/09 00:52:29;;;;;;;5.43;2.40;;;13.40;99.90;;;;;;5054569;28;20790;-64
2021/08/09 00:54:54;;;;;;;5.28;2.17;;;13.40;99.90;;;;;;5055604;28;20063;-63
2021/08/09 00:57:20;;;;;;;3.80;1.98;;;13.40;99.90;;;;;;5054744;28;20493;-64
2021/08/09 00:59:46;;;;;;;5.40;1.70;;;13.40;99.90;;;;;;5054803;28;20025;-64
2021/08/09 01:02:12;;;;;;;3.13;1.65;;;13.40;99.90;;;;;;5055249;28;20028;-64
2021/08/09 01:04:38;;;;;;;3.33;1.60;;;13.30;99.90;;;;;;5054236;28;20025;-64
2021/08/09 01:07:06;;;;;;;3.03;1.85;;;13.30;99.90;;;;;;5055132;28;20025;-64
2021/08/09 01:09:53;;;;;;;4.63;1.48;;;13.30;99.90;;;;;;5045136;28;20116;-64
2021/08/09 01:12:47;;;;;;;3.95;1.40;;;13.30;99.90;;;;;;5034215;28;20056;-64
2021/08/09 01:15:28;;;;;;;7.07;1.60;;;13.40;99.90;;;;;;5034819;28;20021;-64
2021/08/09 01:17:57;;;;;;;3.78;1.25;;;13.40;99.90;;;;;;5053245;28;20433;-64
2021/08/09 01:20:53;;;;;;;2.25;1.23;;;13.40;99.90;;;;;;5053861;28;20025;-64
2021/08/09 01:23:43;;;;;;;3.42;1.30;;;13.30;99.90;;;;;;5054448;28;20503;-65
2021/08/09 01:26:27;;;;;;;3.03;1.52;;;13.30;99.90;;;;;;5054750;28;20032;-64
2021/08/09 01:28:56;;;;;;;4.38;1.88;;;13.30;99.90;;;;;;5054684;28;20021;-64
2021/08/09 01:31:24;;;;;;;3.53;1.67;;;13.20;99.90;;;;;;5053476;28;20454;-64
2021/08/09 01:33:50;;;;;;;2.85;1.60;;;13.10;99.90;;;;;;5054546;28;20417;-64
2021/08/09 01:36:17;;;;;;;5.82;2.30;;;13.10;99.90;;;;;;5054424;28;20029;-64
2021/08/09 01:38:44;;;;;;;2.95;1.92;;;13.00;99.90;;;;;;5054183;28;20116;-64
2021/08/09 01:41:10;;;;;;;5.43;2.03;;;13.00;99.90;;;;;;5054560;28;20060;-64
2021/08/09 01:43:36;;;;;;;4.75;2.17;;;13.00;99.90;;;;;;5053516;28;20029;-64
2021/08/09 01:46:03;;;;;;;6.15;2.58;;;13.00;99.90;;;;;;5052647;28;20068;-64
2021/08/09 01:48:30;;;;;;;5.28;2.20;;;13.00;99.90;;;;;;5053579;28;20043;-64
2021/08/09 01:50:56;;;;;;;3.40;2.03;;;12.90;99.90;;;;;;5054245;28;20032;-64
2021/08/09 01:53:23;;;;;;;4.03;2.25;;;12.90;99.90;;;;;;5053643;28;20032;-64
2021/08/09 01:55:49;;;;;;;3.92;2.50;;;12.90;99.90;;;;;;5054204;28;20033;-64
2021/08/09 01:58:16;;;;;;;3.20;2.05;;;12.80;99.90;;;;;;5054228;28;20021;-64
2021/08/09 02:00:42;;;;;;;3.90;2.25;;;12.70;99.90;;;;;;5052976;28;20640;-64
2021/08/09 02:03:07;;;;;;;3.17;2.22;;;12.60;99.90;;;;;;5054163;28;20116;-64
2021/08/09 02:05:33;;;;;;;5.35;2.03;;;12.50;99.90;;;;;;5053276;28;20025;-64
2021/08/09 02:08:00;;;;;;;4.65;2.42;;;12.40;99.90;;;;;;5053703;28;20072;-64
2021/08/09 02:10:29;;;;;;;2.28;1.90;;;12.40;99.90;;;;;;5037885;28;20041;-64
2021/08/09 02:13:06;;;;;;;3.00;1.73;;;12.40;99.90;;;;;;5033945;28;20034;-64
2021/08/09 02:15:54;;;;;;;3.10;2.10;;;12.30;99.90;;;;;;5031707;28;20030;-64
2021/08/09 02:18:31;;;;;;;2.10;1.65;;;12.30;99.90;;;;;;5013944;28;20022;-64
2021/08/09 02:21:01;;;;;;;3.78;2.00;;;12.20;99.90;;;;;;5014269;28;20080;-64
2021/08/09 02:23:50;;;;;;;5.15;2.38;;;12.20;99.90;;;;;;5013183;28;20033;-64
2021/08/09 02:26:22;;;;;;;4.57;1.85;;;12.20;99.90;;;;;;5013645;28;20468;-64
2021/08/09 02:28:51;;;;;;;5.45;1.98;;;12.10;99.90;;;;;;5013850;28;20026;-64
2021/08/09 02:31:19;;;;;;;4.10;2.00;;;12.10;99.90;;;;;;5013903;28;20030;-64
2021/08/09 02:33:45;;;;;;;2.03;1.83;;;12.10;99.90;;;;;;5013157;28;20091;-64
2021/08/09 02:36:12;;;;;;;1.80;1.52;;;12.10;99.90;;;;;;5013705;28;20037;-64
2021/08/09 02:38:39;;;;;;;2.22;1.75;;;12.10;99.90;;;;;;5012711;28;20150;-64
2021/08/09 02:41:05;;;;;;;4.28;1.63;;;12.00;99.90;;;;;;5013155;28;20128;-64
2021/08/09 02:43:31;;;;;;;2.78;1.50;;;12.00;99.90;;;;;;5012894;28;20044;-64
2021/08/09 02:45:58;;;;;;;3.33;1.75;;;12.00;99.90;;;;;;5017525;28;20028;-64
2021/08/09 02:48:25;;;;;;;3.80;2.38;;;11.90;99.90;;;;;;5052941;28;20031;-65
2021/08/09 02:50:51;;;;;;;3.15;1.95;;;11.90;99.90;;;;;;5053185;28;20029;-64
2021/08/09 02:53:18;;;;;;;3.95;1.85;;;11.90;99.90;;;;;;5052905;28;20032;-64
2021/08/09 02:55:49;;;;;;;3.17;1.77;;;11.80;99.90;;;;;;5052165;28;20658;-64
2021/08/09 02:58:16;;;;;;;4.03;1.48;;;11.80;99.90;;;;;;5052865;28;20458;-64
2021/08/09 03:00:43;;;;;;;2.17;1.92;;;11.80;99.90;;;;;;5052109;28;20032;-64
2021/08/09 03:03:10;;;;;;;2.63;1.70;;;11.70;99.90;;;;;;5052360;28;20047;-64
2021/08/09 03:05:36;;;;;;;2.45;1.60;;;11.70;99.90;;;;;;5052242;28;20029;-64
2021/08/09 03:08:02;;;;;;;2.47;1.83;;;11.70;99.90;;;;;;5051538;28;20025;-64
2021/08/09 03:10:28;;;;;;;4.43;2.25;;;11.60;99.90;;;;;;5036515;28;20034;-64
2021/08/09 03:12:59;;;;;;;2.53;1.90;;;11.60;99.90;;;;;;5032802;28;20383;-64
2021/08/09 03:15:25;;;;;;;2.55;1.92;;;11.60;99.90;;;;;;5032214;28;20029;-65
2021/08/09 03:17:52;;;;;;;4.10;2.17;;;11.60;99.90;;;;;;5050167;28;20110;-64
2021/08/09 03:20:18;;;;;;;2.20;1.90;;;11.60;99.90;;;;;;5052691;28;20025;-64
2021/08/09 03:22:44;;;;;;;3.03;2.08;;;11.50;99.90;;;;;;5051776;28;20021;-64
2021/08/09 03:25:09;;;;;;;3.55;2.00;;;11.50;99.90;;;;;;5052166;28;20516;-64
2021/08/09 03:27:35;;;;;;;3.85;2.00;;;11.50;99.90;;;;;;5051635;28;20060;-64
2021/08/09 03:30:01;;;;;;;2.35;1.85;;;11.60;99.90;;;;;;5052257;28;20033;-64
2021/08/09 03:32:26;;;;;;;3.75;2.30;;;11.50;99.90;;;;;;5051017;28;20072;-64
2021/08/09 03:34:52;;;;;;;2.90;2.00;;;11.50;99.90;;;;;;5052460;28;20501;-64
2021/08/09 03:37:17;;;;;;;3.95;2.53;;;11.50;99.90;;;;;;5052400;28;20397;-64
2021/08/09 03:39:43;;;;;;;3.95;2.13;;;11.50;99.90;;;;;;5051311;28;20069;-64
2021/08/09 03:42:09;;;;;;;4.25;2.33;;;11.50;99.90;;;;;;5052189;28;20029;-64
2021/08/09 03:44:35;;;;;;;3.50;2.47;;;11.50;99.90;;;;;;5051285;28;20029;-64
2021/08/09 03:47:00;;;;;;;5.90;2.42;;;11.50;99.90;;;;;;5051666;28;20032;-64
2021/08/09 03:49:26;;;;;;;3.00;2.70;;;11.50;99.90;;;;;;5051095;28;20028;-65
2021/08/09 03:51:52;;;;;;;4.13;2.50;;;11.50;99.90;;;;;;5051794;28;20025;-64
2021/08/09 03:54:17;;;;;;;2.90;2.00;;;11.50;99.90;;;;;;5052154;28;20523;-64
2021/08/09 03:56:43;;;;;;;3.20;2.17;;;11.50;99.90;;;;;;5050001;28;20056;-64
2021/08/09 03:59:09;;;;;;;2.78;1.67;;;11.50;99.90;;;;;;5051697;28;20040;-64
2021/08/09 04:01:39;;;;;;;2.53;1.70;;;11.50;99.90;;;;;;5051029;28;20032;-64
2021/08/09 04:04:06;;;;;;;4.00;2.00;;;11.50;99.90;;;;;;5051871;28;20036;-64
2021/08/09 04:06:32;;;;;;;2.85;2.10;;;11.60;99.90;;;;;;5051010;28;20108;-64
2021/08/09 04:08:58;;;;;;;4.20;2.40;;;11.60;99.90;;;;;;5048730;28;20025;-64
2021/08/09 04:11:24;;;;;;;3.25;2.08;;;11.70;99.90;;;;;;5031457;28;20112;-65
2021/08/09 04:13:49;;;;;;;3.63;2.20;;;11.70;99.90;;;;;;5031126;28;20439;-64
2021/08/09 04:16:15;;;;;;;3.45;2.15;;;11.70;99.90;;;;;;5036117;28;20029;-64
2021/08/09 04:18:41;;;;;;;5.32;2.10;;;11.70;99.90;;;;;;5050513;28;20044;-64
2021/08/09 04:21:06;;;;;;;4.13;2.22;;;11.70;99.90;;;;;;5051718;28;20108;-64
2021/08/09 04:23:32;;;;;;;1.90;1.80;;;11.70;99.90;;;;;;5050690;28;20047;-64
2021/08/09 04:25:58;;;;;;;4.95;2.30;;;11.70;99.90;;;;;;5051386;28;20021;-64
2021/08/09 04:28:23;;;;;;;2.60;2.08;;;11.70;99.90;;;;;;5051394;28;20021;-64
2021/08/09 04:30:49;;;;;;;6.22;2.03;;;11.70;99.90;;;;;;5050513;28;20029;-64
2021/08/09 04:33:15;;;;;;;4.82;2.45;;;11.80;99.90;;;;;;5051126;28;20029;-64
2021/08/09 04:35:40;;;;;;;5.13;1.83;;;11.90;99.90;;;;;;5050169;28;20057;-64
2021/08/09 04:38:06;;;;;;;4.90;2.28;;;11.90;99.90;;;;;;5051398;28;20036;-64
2021/08/09 04:40:31;;;;;;;3.38;2.55;;;11.90;99.90;;;;;;5050626;28;20505;-64
2021/08/09 04:42:58;;;;;;;5.35;2.30;;;11.90;99.90;;;;;;5051159;28;20031;-64
2021/08/09 04:45:24;;;;;;;5.07;2.15;;;11.90;99.90;;;;;;5050227;28;20029;-64
2021/08/09 04:47:50;;;;;;;4.85;2.22;;;12.00;99.90;;;;;;5032792;28;20013;-64
2021/08/09 04:50:16;;;;;;;6.47;1.92;;;12.10;99.90;;;;;;5031188;28;20364;-64
2021/08/09 04:52:42;;;;;;;2.97;2.05;;;12.10;99.90;;;;;;5029856;28;20455;-64
2021/08/09 04:55:10;;;;;;;3.70;1.98;;;12.20;99.90;;;;;;5031101;28;20036;-64
2021/08/09 04:57:36;;;;;;;3.20;1.70;;;12.30;99.90;;;;;;5030138;28;20026;-64
2021/08/09 05:00:03;;;;;;;4.47;2.20;;;12.30;99.90;;;;;;5030748;28;20021;-64
2021/08/09 05:02:29;;;;;;;7.47;2.47;;;12.50;99.90;;;;;;5030272;28;20037;-65
2021/08/09 05:04:54;;;;;;;3.35;1.85;;;12.50;99.90;;;;;;5031803;28;20414;-64
2021/08/09 05:07:20;;;;;;;5.30;2.10;;;12.60;99.90;;;;;;5030844;28;20040;-64
2021/08/09 05:09:45;;;;;;;2.45;1.65;;;12.70;99.90;;;;;;5029761;28;20083;-64
2021/08/09 05:12:11;;;;;;;1.90;1.65;;;12.70;99.90;;;;;;5030601;28;20423;-63
2021/08/09 05:14:37;;;;;;;2.97;1.70;;;12.80;99.90;;;;;;5030568;28;20030;-64
2021/08/09 05:17:02;;;;;;;3.40;1.85;;;12.80;99.90;;;;;;5031008;28;20030;-64
2021/08/09 05:19:29;;;;;;;6.10;2.30;;;12.90;99.90;;;;;;5030099;28;20395;-64
2021/08/09 05:21:55;;;;;;;4.78;2.60;;;12.90;99.90;;;;;;5030774;28;20084;-63
2021/08/09 05:24:21;;;;;;;5.53;2.15;;;13.10;99.90;;;;;;5030533;28;20424;-64
2021/08/09 05:26:46;;;;;;;5.10;1.90;;;13.10;99.90;;;;;;5031816;28;20195;-71
2021/08/09 05:29:12;;;;;;;3.45;2.20;;;13.20;99.90;;;;;;5038133;28;20052;-69
2021/08/09 05:31:39;;;;;;;4.25;2.20;;;13.30;99.90;;;;;;5033847;28;20362;-69
2021/08/09 05:34:05;;;;;;;4.00;1.95;;;13.30;99.90;;;;;;5033787;28;20057;-69
2021/08/09 05:36:31;;;;;;;4.95;2.33;;;13.40;99.90;;;;;;5033913;28;20021;-69
2021/08/09 05:38:59;;;;;;;3.97;2.08;;;13.50;99.90;;;;;;5034567;28;20456;-70
2021/08/09 05:41:24;;;;;;;6.78;2.60;;;13.50;99.90;;;;;;5034439;28;20434;-68
2021/08/09 05:43:50;;;;;;;7.47;2.42;;;13.70;99.90;;;;;;5034158;28;20079;-68
2021/08/09 05:46:17;;;;;;;2.67;1.98;;;13.80;99.90;;;;;;5034700;28;20398;-70
2021/08/09 05:48:42;;;;;;;5.93;2.28;;;13.90;99.90;;;;;;5033806;28;20040;-69
2021/08/09 05:51:08;;;;;;;4.50;2.10;;;13.90;99.90;;;;;;5034344;28;20033;-68
2021/08/09 05:53:34;;;;;;;3.90;2.03;;;14.00;99.90;;;;;;5033199;28;20068;-70
2021/08/09 05:55:59;;;;;;;3.90;2.28;;;14.10;99.90;;;;;;5034589;28;20025;-69
2021/08/09 05:58:25;;;;;;;3.92;2.20;;;14.10;99.90;;;;;;5034218;28;20021;-70
2021/08/09 06:00:51;;;;;;;5.90;2.38;;;14.20;99.90;;;;;;5033614;28;20096;-71
2021/08/09 06:03:18;;;;;;;6.15;2.45;;;14.20;99.90;;;;;;5037196;28;20108;-71
2021/08/09 06:05:45;;;;;;;5.60;2.08;;;14.20;99.90;;;;;;5052263;28;20017;-69
2021/08/09 06:08:11;;;;;;;4.18;2.00;;;14.40;99.90;;;;;;5053709;28;20090;-69
2021/08/09 06:10:37;;;;;;;4.93;2.03;;;14.50;99.90;;;;;;5036437;28;20433;-71
2021/08/09 06:13:02;;;;;;;7.38;2.85;;;14.50;99.90;;;;;;5034198;28;20486;-68
2021/08/09 06:15:28;;;;;;;6.28;2.78;;;14.70;99.90;;;;;;5033114;28;20037;-72
2021/08/09 06:17:54;;;;;;;4.25;2.60;;;14.70;99.90;;;;;;5034089;28;20033;-69
2021/08/09 06:20:19;;;;;;;6.43;3.00;;;14.90;99.90;;;;;;5032035;28;20030;-69
2021/08/09 06:22:45;;;;;;;5.32;2.45;;;15.10;99.90;;;;;;5033179;28;20436;-69
2021/08/09 06:25:11;;;;;;;6.18;2.47;;;15.20;99.90;;;;;;5030119;28;20026;-69
2021/08/09 06:27:36;;;;;;;4.63;2.40;;;15.30;99.90;;;;;;5032593;28;20071;-69
2021/08/09 06:30:03;;;;;;;4.88;2.22;;;15.30;99.90;;;;;;5033559;28;20044;-69
2021/08/09 06:32:29;;;;;;;5.40;1.90;;;15.40;99.90;;;;;;5032940;28;20049;-70
2021/08/09 06:34:54;;;;;;;5.03;2.05;;;15.60;99.90;;;;;;5033845;28;20030;-69
2021/08/09 06:37:20;;;;;;;8.15;2.00;;;15.80;99.90;;;;;;5033255;28;20033;-70
2021/08/09 06:39:45;;;;;;;3.33;2.45;;;15.90;99.90;;;;;;5032329;28;20049;-69
2021/08/09 06:42:11;;;;;;;5.70;1.45;;;16.10;99.90;;;;;;5033606;28;20109;-70
2021/08/09 06:44:37;;;;;;;3.67;1.73;;;16.20;99.90;;;;;;5033281;28;20475;-69
2021/08/09 06:47:03;;;;;;;5.78;1.63;;;16.40;99.90;;;;;;5033460;28;20479;-70
2021/08/09 06:49:28;;;;;;;2.05;1.10;;;16.50;99.90;;;;;;5033623;28;20064;-70
2021/08/09 06:51:54;;;;;;;2.38;1.13;;;16.60;99.90;;;;;;5033020;28;20025;-70
2021/08/09 06:54:23;;;;;;;1.92;1.13;;;16.70;99.90;;;;;;5040533;28;20060;-70
2021/08/09 06:56:49;;;;;;;3.58;1.20;;;16.80;99.70;;;;;;5052764;28;20025;-70
2021/08/09 06:59:14;;;;;;;2.20;1.05;;;16.90;99.90;;;;;;5053445;28;20382;-70
2021/08/09 07:01:40;;;;;;;2.55;1.25;;;17.10;99.80;;;;;;5052662;28;20474;-70
2021/08/09 07:04:05;;;;;;;4.68;1.00;;;17.30;99.00;;;;;;5043202;28;20116;-70
2021/08/09 07:06:31;;;;;;;3.58;1.13;;;17.40;98.20;;;;;;5032527;28;20395;-70
2021/08/09 07:08:57;;;;;;;2.50;1.45;;;17.50;97.60;;;;;;5033387;28;20017;-70
2021/08/09 07:11:23;;;;;;;3.10;1.15;;;17.70;97.00;;;;;;5033156;28;20042;-70
2021/08/09 07:13:51;;;;;;;3.67;1.40;;;17.90;97.10;;;;;;5032588;28;20445;-70
2021/08/09 07:16:19;;;;;;;3.55;1.10;;;17.90;96.20;;;;;;5033089;28;20029;-70
2021/08/09 07:18:44;;;;;;;4.85;1.42;;;18.10;95.50;;;;;;5032101;28;20403;-70
2021/08/09 07:21:10;;;;;;;3.13;1.15;;;18.30;94.40;;;;;;5032926;28;20021;-70
2021/08/09 07:23:36;;;;;;;2.42;1.00;;;18.30;94.40;;;;;;5032781;28;20447;-70
2021/08/09 07:26:02;;;;;;;2.53;1.30;;;18.50;94.10;;;;;;5052921;28;20112;-70
2021/08/09 07:28:28;;;;;;;4.38;1.00;;;18.70;93.40;;;;;;5052715;28;20104;-70
2021/08/09 07:30:53;;;;;;;2.63;1.05;;;18.90;93.00;;;;;;5052219;28;20476;-70
2021/08/09 07:33:19;;;;;;;2.92;0.98;;;18.90;92.40;;;;;;5052718;28;20355;-71
2021/08/09 07:35:45;;;;;;;2.70;1.10;;;19.10;91.90;;;;;;5033676;28;20581;-70
2021/08/09 07:38:11;;;;;;;2.10;1.10;;;19.20;91.20;;;;;;5032707;28;20406;-70
2021/08/09 07:40:36;;;;;;;2.28;0.90;;;19.30;90.60;;;;;;5031964;28;20053;-70
2021/08/09 07:43:02;;;;;;;1.92;0.90;;;19.40;90.00;;;;;;5029721;28;20083;-70
2021/08/09 07:45:28;;;;;;;2.95;0.73;;;19.50;89.60;;;;;;5032885;28;20026;-71
2021/08/09 07:47:55;;;;;;;2.10;0.90;;;19.50;89.20;;;;;;5032852;28;20109;-71
2021/08/09 07:50:21;;;;;;;4.00;1.20;;;19.60;87.40;;;;;;5032412;28;20136;-71
2021/08/09 07:52:47;;;;;;;2.88;0.82;;;19.60;86.40;;;;;;5031773;28;20037;-70
2021/08/09 07:55:12;;;;;;;4.20;1.13;;;19.60;85.90;;;;;;5046737;28;20379;-70
2021/08/09 07:57:38;;;;;;;1.55;0.90;;;19.70;85.10;;;;;;5051951;28;20024;-70
2021/08/09 08:00:05;;;;;;;4.47;1.13;;;19.70;84.70;;;;;;5052481;28;20029;-70
2021/08/09 08:02:31;;;;;;;2.75;0.70;;;19.80;84.10;;;;;;5052385;28;20167;-70
2021/08/09 08:04:57;;;;;;;2.15;0.82;;;19.90;83.90;;;;;;5052644;28;20036;-70
2021/08/09 08:07:23;;;;;;;4.22;0.88;;;20.00;83.60;;;;;;5052227;28;20029;-70
2021/08/09 08:09:49;;;;;;;2.70;1.08;;;20.10;83.10;;;;;;5041681;28;20033;-70
2021/08/09 08:12:15;;;;;;;2.47;0.98;;;20.20;82.30;;;;;;5032394;28;20093;-70
2021/08/09 08:14:41;;;;;;;3.30;1.15;;;20.30;82.00;;;;;;5031877;28;20026;-70
2021/08/09 08:17:07;;;;;;;2.78;1.00;;;20.40;80.80;;;;;;5032268;28;20037;-70
2021/08/09 08:19:33;;;;;;;4.22;1.05;;;20.50;80.10;;;;;;5029357;28;20471;-70
2021/08/09 08:21:58;;;;;;;3.92;0.82;;;20.50;80.30;;;;;;5031865;28;20429;-69
2021/08/09 08:24:24;;;;;;;8.80;1.20;;;20.50;79.90;;;;;;5032835;28;20402;-70
2021/08/09 08:26:50;;;;;;;2.67;0.90;;;20.50;80.30;;;;;;5040877;28;20075;-70
2021/08/09 08:29:15;;;;;;;2.85;0.90;;;20.40;80.20;;;;;;5028363;28;20033;-71
2021/08/09 08:31:42;;;;;;;2.83;0.80;;;20.50;80.70;;;;;;5032378;28;20502;-70
2021/08/09 08:34:08;;;;;;;3.03;0.90;;;20.60;79.50;;;;;;5031786;28;20039;-70
2021/08/09 08:36:34;;;;;;;4.90;1.35;;;20.70;79.90;;;;;;5031940;28;20030;-70
2021/08/09 08:38:59;;;;;;;2.35;0.90;;;20.90;80.30;;;;;;5031967;28;20087;-70
2021/08/09 08:41:25;;;;;;;2.15;0.90;;;21.00;77.60;;;;;;5032347;28;20034;-70
2021/08/09 08:43:52;;;;;;;4.88;1.20;;;21.10;77.20;;;;;;5031451;28;20383;-70
2021/08/09 08:46:18;;;;;;;6.43;1.35;;;21.30;76.20;;;;;;5032179;28;20498;-69
2021/08/09 08:48:45;;;;;;;2.15;0.90;;;21.50;76.10;;;;;;5031360;28;20112;-69
2021/08/09 08:51:11;;;;;;;2.65;1.00;;;21.60;73.80;;;;;;5032140;28;20044;-70
2021/08/09 08:53:37;;;;;;;2.63;1.00;;;21.60;73.80;;;;;;5031210;28;20526;-69
2021/08/09 08:56:08;;;;;;;2.83;0.98;;;21.70;72.70;;;;;;5032238;28;20057;-66
2021/08/09 08:58:34;;;;;;;2.95;1.10;;;21.80;71.90;;;;;;5031471;28;20113;-66
2021/08/09 09:01:00;;;;;;;1.05;0.65;;;21.80;71.90;;;;;;5047029;28;20083;-66
2021/08/09 09:03:27;;;;;;;3.63;1.20;;;21.90;72.60;;;;;;5055542;28;20407;-65
2021/08/09 09:06:02;;;;;;;1.60;0.80;;;22.00;70.20;;;;;;5052705;28;20052;-66
2021/08/09 09:08:44;;;;;;;1.73;0.82;;;22.10;71.00;;;;;;5035993;28;20195;-65
2021/08/09 09:11:13;;;;;;;1.75;0.90;;;22.20;70.30;;;;;;5016047;28;20068;-66
2021/08/09 09:14:02;;;;;;;2.13;0.82;;;22.20;70.70;;;;;;5014991;28;20071;-66
2021/08/09 09:16:45;;;;;;;1.88;0.75;;;22.30;67.70;;;;;;5015662;28;20450;-66
2021/08/09 09:19:27;;;;;;;1.35;0.75;;;22.50;64.60;;;;;;5015906;28;20101;-66
2021/08/09 09:21:53;;;;;;;1.48;0.45;;;22.60;63.40;;;;;;5015464;28;20033;-66
2021/08/09 09:24:20;;;;;;;3.90;0.70;;;23.00;63.10;;;;;;5015879;28;20042;-66
2021/08/09 09:26:56;;;;;;;6.10;0.98;;;23.20;62.50;;;;;;5014904;28;20444;-66
2021/08/09 09:29:23;;;;;;;0.95;0.50;;;23.50;62.00;;;;;;5018700;28;20029;-65
2021/08/09 09:31:50;;;;;;;1.08;0.70;;;23.60;59.80;;;;;;5054561;28;20033;-65
2021/08/09 09:34:18;;;;;;;2.05;0.82;;;23.70;60.10;;;;;;5055084;28;20041;-65
2021/08/09 09:36:51;;;;;;;3.65;0.70;;;23.90;60.30;;;;;;5054418;28;20025;-66
2021/08/09 09:39:37;;;;;;;2.05;0.70;;;24.00;59.30;;;;;;5054680;28;20454;-65
2021/08/09 09:42:05;;;;;;;1.73;0.80;;;24.10;57.70;;;;;;5055067;28;20029;-65
2021/08/09 09:44:33;;;;;;;1.20;0.88;;;24.20;57.50;;;;;;5055036;28;20112;-65
2021/08/09 09:47:17;;;;;;;2.05;1.10;;;24.20;57.60;;;;;;5054443;28;20056;-65
2021/08/09 09:49:43;;;;;;;1.25;0.80;;;24.20;56.30;;;;;;5054328;28;20025;-65
2021/08/09 09:52:08;;;;;;;1.80;1.05;;;24.10;56.80;;;;;;5054898;28;20036;-65
2021/08/09 09:54:34;;;;;;;3.08;0.80;;;24.10;56.50;;;;;;5054877;28;20052;-65
2021/08/09 09:57:01;;;;;;;3.05;0.82;;;24.20;56.90;;;;;;5053810;28;20033;-65
2021/08/09 09:59:29;;;;;;;3.55;0.80;;;24.00;56.30;;;;;;5054537;28;20406;-64
2021/08/09 10:01:55;;;;;;;2.53;0.82;;;24.00;57.30;;;;;;5053772;28;20032;-65
2021/08/09 10:04:21;;;;;;;1.00;0.60;;;24.00;56.90;;;;;;5053471;28;20049;-65
2021/08/09 10:06:47;;;;;;;4.25;0.77;;;24.10;56.80;;;;;;5032759;28;20383;-65
2021/08/09 10:09:14;;;;;;;2.20;1.00;;;24.10;57.30;;;;;;5033088;28;20033;-65
2021/08/09 10:11:43;;;;;;;3.28;0.75;;;24.20;56.90;;;;;;5033848;28;20041;-66
2021/08/09 10:14:10;;;;;;;2.92;1.05;;;24.40;56.50;;;;;;5034096;28;20564;-65
2021/08/09 10:16:38;;;;;;;3.17;0.90;;;24.40;57.00;;;;;;5038223;28;20390;-66
2021/08/09 10:19:04;;;;;;;3.35;0.95;;;24.60;56.40;;;;;;5034198;28;20039;-65
2021/08/09 10:21:32;;;;;;;2.53;0.95;;;24.70;55.00;;;;;;5034506;28;20025;-65
2021/08/09 10:23:57;;;;;;;1.35;0.90;;;24.80;54.40;;;;;;5033763;28;20523;-65
2021/08/09 10:26:32;;;;;;;0.82;0.70;;;25.00;55.20;;;;;;5034183;28;20030;-65
2021/08/09 10:29:03;;;;;;;1.75;0.80;;;25.10;55.70;;;;;;5033180;28;20489;-65
2021/08/09 10:31:39;;;;;;;2.72;0.90;;;25.30;55.70;;;;;;5034218;28;20502;-65
2021/08/09 10:34:39;;;;;;;1.88;0.93;;;25.30;54.20;;;;;;5034209;28;20041;-65
2021/08/09 10:37:12;;;;;;;;;;;25.30;55.00;;;;;;5033919;28;20033;-65
2021/08/09 10:39:48;;;;;;;2.15;1.00;;;25.20;55.80;;;;;;5032589;28;19921;-65
2021/08/09 10:42:34;;;;;;;1.83;0.93;;;25.40;55.00;;;;;;5033545;28;20025;-66
2021/08/09 10:45:00;;;;;;;3.03;1.30;;;25.80;55.10;;;;;;5016459;28;20021;-66
2021/08/09 10:47:45;;;;;;;5.45;1.20;;;26.00;53.50;;;;;;5033463;28;20022;-65
2021/08/09 10:50:31;;;;;;;1.58;0.88;;;26.00;53.60;;;;;;5033346;28;20048;-66
2021/08/09 10:52:58;;;;;;;3.40;1.05;;;25.90;54.00;;;;;;5032357;28;20467;-66
2021/08/09 10:55:32;;;;;;;3.35;1.15;;;25.80;53.70;;;;;;5032683;28;20056;-66
2021/08/09 10:58:00;;;;;;;1.73;0.75;;;25.90;53.50;;;;;;5032225;28;20828;-66
2021/08/09 11:00:40;;;;;;;2.05;1.15;;;26.00;53.60;;;;;;5031964;28;20418;-66
2021/08/09 11:03:16;;;;;;;2.60;1.17;;;26.20;53.60;;;;;;5032909;28;20463;-66
2021/08/09 11:05:42;;;;;;;1.35;0.80;;;26.40;52.10;;;;;;5032635;28;20021;-66
2021/08/09 11:08:26;;;;;;;1.77;1.02;;;26.40;52.10;;;;;;5033067;28;20455;-66
2021/08/09 11:10:51;;;;;;;2.08;1.05;;;26.60;51.90;;;;;;5031545;28;20113;-66
2021/08/09 11:13:18;;;;;;;3.15;1.00;;;26.80;51.40;;;;;;5046460;28;20139;-66
2021/08/09 11:15:57;;;;;;;2.40;0.82;;;26.90;52.10;;;;;;5052021;28;20420;-66
2021/08/09 11:18:24;;;;;;;2.33;1.23;;;27.20;51.80;;;;;;5052958;28;20056;-66
2021/08/09 11:21:00;;;;;;;3.13;1.50;;;27.30;51.50;;;;;;5050786;28;20037;-66
2021/08/09 11:23:26;;;;;;;3.53;1.58;;;27.60;51.40;;;;;;5052354;28;20039;-66
2021/08/09 11:25:52;;;;;;;1.35;1.02;;;27.90;50.50;;;;;;5037477;28;20033;-66
2021/08/09 11:28:23;;;;;;;2.67;1.05;;;28.10;49.80;;;;;;5032736;28;20056;-66
2021/08/09 11:30:52;;;;;;;2.35;1.27;;;27.90;49.70;;;;;;5031823;28;20035;-66
2021/08/09 11:33:39;;;;;;;2.65;1.33;;;27.50;50.20;;;;;;5032589;28;20095;-66
2021/08/09 11:36:11;;;;;;;3.58;1.27;;;27.10;51.60;;;;;;5032027;28;20026;-66
2021/08/09 11:38:51;;;;;;;1.73;1.10;;;26.70;52.60;;;;;;5032557;28;20067;-66
2021/08/09 11:41:21;;;;;;;4.78;1.50;;;26.50;51.70;;;;;;5032650;28;20049;-66
2021/08/09 11:43:49;;;;;;;2.63;1.27;;;26.40;52.00;;;;;;5037677;28;20035;-66
2021/08/09 11:46:17;;;;;;;2.53;1.10;;;26.20;50.10;;;;;;5032138;28;20033;-66
2021/08/09 11:48:46;;;;;;;2.17;1.10;;;26.20;50.90;;;;;;5031901;28;20351;-66
2021/08/09 11:51:15;;;;;;;6.25;1.38;;;26.40;51.10;;;;;;5031803;28;20034;-66
2021/08/09 11:53:46;;;;;;;1.38;1.00;;;26.70;50.50;;;;;;5032148;28;20044;-66
2021/08/09 11:56:14;;;;;;;2.05;1.10;;;26.80;50.20;;;;;;5031870;28;20056;-66
2021/08/09 11:58:42;;;;;;;4.22;1.10;;;26.80;50.10;;;;;;5032192;28;20112;-66
2021/08/09 12:01:08;;;;;;;4.80;1.27;;;26.80;50.80;;;;;;5031405;28;20370;-66
2021/08/09 12:03:34;;;;;;;1.52;1.15;;;26.90;49.60;;;;;;5032092;28;20039;-66
2021/08/09 12:06:23;;;;;;;4.40;1.00;;;27.10;47.80;;;;;;5031284;28;20028;-66
2021/08/09 12:08:49;;;;;;;1.27;0.80;;;27.20;47.80;;;;;;5031254;28;20037;-66
2021/08/09 12:11:15;;;;;;;1.98;1.15;;;27.30;48.00;;;;;;5032103;28;20033;-66
2021/08/09 12:13:41;;;;;;;2.50;1.10;;;27.50;48.50;;;;;;5040355;28;20572;-66
2021/08/09 12:16:12;;;;;;;2.45;1.40;;;27.90;47.50;;;;;;5050589;28;20067;-66
2021/08/09 12:18:40;;;;;;;2.08;1.20;;;28.10;46.70;;;;;;5033157;28;20022;-66
2021/08/09 12:21:13;;;;;;;1.90;1.10;;;28.30;46.90;;;;;;5029377;28;20033;-66
2021/08/09 12:23:56;;;;;;;2.92;1.23;;;28.50;46.50;;;;;;5047425;28;20078;-66
2021/08/09 12:26:23;;;;;;;2.42;0.90;;;29.00;45.60;;;;;;5050241;28;20492;-66
2021/08/09 12:28:53;;;;;;;2.15;0.93;;;29.50;45.80;;;;;;5050302;28;20029;-66
2021/08/09 12:31:36;;;;;;;2.38;1.00;;;30.10;44.50;;;;;;5051022;28;20033;-66
2021/08/09 12:34:08;;;;;;;1.35;0.95;;;30.90;42.90;;;;;;5050741;28;20099;-66
2021/08/09 12:36:34;;;;;;;2.53;1.20;;;31.10;42.60;;;;;;5052898;28;20079;-66
2021/08/09 12:39:00;;;;;;;3.97;1.30;;;31.00;41.60;;;;;;5034040;28;20028;-66
2021/08/09 12:41:30;;;;;;;2.97;1.00;;;30.80;42.20;;;;;;5036153;28;20347;-66
2021/08/09 12:43:58;;;;;;;1.90;1.10;;;30.40;42.40;;;;;;5036175;28;20029;-67
2021/08/09 12:46:24;;;;;;;2.20;1.48;;;29.80;42.60;;;;;;5036025;28;20155;-66
2021/08/09 12:48:51;;;;;;;2.63;0.98;;;29.60;43.60;;;;;;5034839;28;20463;-66
2021/08/09 12:51:18;;;;;;;1.33;1.15;;;29.30;43.20;;;;;;5033692;28;20028;-66
2021/08/09 12:53:44;;;;;;;3.40;1.17;;;28.80;43.60;;;;;;5034055;28;20029;-66